Aeroporto :
LOGIN :

Iscrizione | Disclaimer

   EN    FR    IT 

 










Sommario :    VFR   VFR Marginale   IFR   IFR Intensivo   IFR Molto Intensivo
Visibilità : 
Base nubi : 
>= 8 km
>= 3000ft
5 / 8 km
1000 / 3000 ft
1500m / 5 km
500 / 1000 ft
800 / 1500m
200 / 500 ft
< 800m
< 200 ft
Simboli :   Temporali  Nebbia  Neve Forte  Precipitazioni Forti  Vento > 20 kt
SIGMETs :   Varie  Temporali  Ghiacco  Turbolenza  Onda orograficha  Ceneri Vulcaniche






- Altitudine del aeroporto : 794 ft


LKCV - Čáslav Air Base

ULTIMO METAR :
  • 150400Z 17007KT CAVOK 05/M00 Q1006 NOSIG RMK BLU BLU

METARs OBSOLETI :
  • 150300Z 19003KT 9999 BKN045 05/M00 Q1006 NOSIG RMK BLU BLU
  • 150200Z 26010KT 9999 BKN048 06/M00 Q1006 NOSIG RMK BLU BLU

TAF TAF LKCV
Valido dal 15 a 00 ore il 16 a 00 ore UTC


142300Z 1500/1600 22016KT CAVOK
TEMPO 1502/1510 18008KT
BECMG 1506/1508 BKN030
TEMPO 1507/1519 6000 RA BKN015 OVC025



MetMap, La meteo Aeronautica in un colpo d'occhio ! - Copyright ORBIFLY Dicembre 2007 - Disclaimer

ORBIFLY MET'MAP TEAM :

Programmazione e sviluppo : Alexandra Zaïnal
Concezione : Baudouin d'Aumeries
Aiuto per la programmazione : Marc-Olivier Méhu
Supporto tecnico e logistico : Manuel Goepfert
Aiuto per la traduzione : Arnaldo La Scala

Contatto : metmap@orbifly.com




FONTI E CREDITI :

   NOAA